sensor_id;sensor_type;location;lat;lon;timestamp;P1;durP1;ratioP1;P2;durP2;ratioP2
52724;SDS011;38621;52.830;6.914;2023-12-07T00:01:02;11.32;;;9.85;;
52724;SDS011;38621;52.830;6.914;2023-12-07T00:03:28;11.02;;;8.88;;
52724;SDS011;38621;52.830;6.914;2023-12-07T00:05:54;10.82;;;9.13;;
52724;SDS011;38621;52.830;6.914;2023-12-07T00:08:19;10.02;;;9.02;;
52724;SDS011;38621;52.830;6.914;2023-12-07T00:10:45;10.15;;;9.02;;
52724;SDS011;38621;52.830;6.914;2023-12-07T00:13:11;10.65;;;9.15;;
52724;SDS011;38621;52.830;6.914;2023-12-07T00:15:36;9.55;;;8.65;;
52724;SDS011;38621;52.830;6.914;2023-12-07T00:18:02;10.07;;;9.00;;
52724;SDS011;38621;52.830;6.914;2023-12-07T00:20:29;10.35;;;9.25;;
52724;SDS011;38621;52.830;6.914;2023-12-07T00:22:55;10.68;;;8.57;;
52724;SDS011;38621;52.830;6.914;2023-12-07T00:25:21;8.65;;;7.82;;
52724;SDS011;38621;52.830;6.914;2023-12-07T00:27:47;9.13;;;8.23;;
52724;SDS011;38621;52.830;6.914;2023-12-07T00:30:13;10.45;;;9.00;;
52724;SDS011;38621;52.830;6.914;2023-12-07T00:32:39;10.18;;;8.65;;
52724;SDS011;38621;52.830;6.914;2023-12-07T00:35:08;11.57;;;8.90;;
52724;SDS011;38621;52.830;6.914;2023-12-07T00:37:37;11.32;;;8.75;;
52724;SDS011;38621;52.830;6.914;2023-12-07T00:40:02;8.85;;;7.95;;
52724;SDS011;38621;52.830;6.914;2023-12-07T00:42:29;10.35;;;8.77;;
52724;SDS011;38621;52.830;6.914;2023-12-07T00:44:55;11.48;;;8.80;;
52724;SDS011;38621;52.830;6.914;2023-12-07T00:47:21;10.80;;;9.02;;
52724;SDS011;38621;52.830;6.914;2023-12-07T00:49:47;10.00;;;8.30;;
52724;SDS011;38621;52.830;6.914;2023-12-07T00:52:13;9.93;;;8.70;;
52724;SDS011;38621;52.830;6.914;2023-12-07T00:54:38;9.23;;;8.00;;
52724;SDS011;38621;52.830;6.914;2023-12-07T00:57:04;8.23;;;7.43;;
52724;SDS011;38621;52.830;6.914;2023-12-07T00:59:31;10.30;;;8.88;;
52724;SDS011;38621;52.830;6.914;2023-12-07T01:02:02;11.05;;;8.63;;
52724;SDS011;38621;52.830;6.914;2023-12-07T01:04:28;8.98;;;8.10;;
52724;SDS011;38621;52.830;6.914;2023-12-07T01:06:54;10.23;;;8.32;;
52724;SDS011;38621;52.830;6.914;2023-12-07T01:09:20;9.18;;;8.27;;
52724;SDS011;38621;52.830;6.914;2023-12-07T01:11:47;10.35;;;8.50;;
52724;SDS011;38621;52.830;6.914;2023-12-07T01:14:13;13.90;;;8.63;;
52724;SDS011;38621;52.830;6.914;2023-12-07T01:16:38;11.45;;;8.70;;
52724;SDS011;38621;52.830;6.914;2023-12-07T01:19:04;8.90;;;7.35;;
52724;SDS011;38621;52.830;6.914;2023-12-07T01:21:30;11.35;;;8.90;;
52724;SDS011;38621;52.830;6.914;2023-12-07T01:23:56;9.93;;;8.85;;
52724;SDS011;38621;52.830;6.914;2023-12-07T01:26:23;10.02;;;8.55;;
52724;SDS011;38621;52.830;6.914;2023-12-07T01:28:49;12.77;;;8.90;;
52724;SDS011;38621;52.830;6.914;2023-12-07T01:31:14;9.95;;;8.57;;
52724;SDS011;38621;52.830;6.914;2023-12-07T01:33:40;11.65;;;8.48;;
52724;SDS011;38621;52.830;6.914;2023-12-07T01:36:06;9.77;;;8.50;;
52724;SDS011;38621;52.830;6.914;2023-12-07T01:38:32;9.70;;;8.43;;
52724;SDS011;38621;52.830;6.914;2023-12-07T01:40:58;9.90;;;8.98;;
52724;SDS011;38621;52.830;6.914;2023-12-07T01:43:24;10.65;;;8.48;;
52724;SDS011;38621;52.830;6.914;2023-12-07T01:45:50;10.50;;;8.82;;
52724;SDS011;38621;52.830;6.914;2023-12-07T01:48:20;9.68;;;8.63;;
52724;SDS011;38621;52.830;6.914;2023-12-07T01:50:47;12.02;;;8.40;;
52724;SDS011;38621;52.830;6.914;2023-12-07T01:53:13;12.23;;;8.93;;
52724;SDS011;38621;52.830;6.914;2023-12-07T01:55:40;11.50;;;8.77;;
52724;SDS011;38621;52.830;6.914;2023-12-07T01:58:07;9.82;;;8.68;;
52724;SDS011;38621;52.830;6.914;2023-12-07T02:00:33;8.82;;;7.93;;
52724;SDS011;38621;52.830;6.914;2023-12-07T02:03:00;10.80;;;8.18;;
52724;SDS011;38621;52.830;6.914;2023-12-07T02:05:30;10.30;;;8.73;;
52724;SDS011;38621;52.830;6.914;2023-12-07T02:07:57;8.88;;;7.97;;
52724;SDS011;38621;52.830;6.914;2023-12-07T02:10:23;11.48;;;8.35;;
52724;SDS011;38621;52.830;6.914;2023-12-07T02:12:49;11.18;;;8.65;;
52724;SDS011;38621;52.830;6.914;2023-12-07T02:15:16;11.15;;;9.55;;
52724;SDS011;38621;52.830;6.914;2023-12-07T02:20:12;11.63;;;9.25;;
52724;SDS011;38621;52.830;6.914;2023-12-07T02:22:45;13.60;;;8.57;;
52724;SDS011;38621;52.830;6.914;2023-12-07T02:25:14;8.60;;;7.80;;
52724;SDS011;38621;52.830;6.914;2023-12-07T02:27:44;10.18;;;9.10;;
52724;SDS011;38621;52.830;6.914;2023-12-07T02:30:13;8.93;;;8.02;;
52724;SDS011;38621;52.830;6.914;2023-12-07T02:32:40;10.07;;;8.85;;
52724;SDS011;38621;52.830;6.914;2023-12-07T02:35:10;9.60;;;8.65;;
52724;SDS011;38621;52.830;6.914;2023-12-07T02:37:44;10.45;;;8.95;;
52724;SDS011;38621;52.830;6.914;2023-12-07T02:40:18;9.13;;;8.05;;
52724;SDS011;38621;52.830;6.914;2023-12-07T02:42:49;12.27;;;8.80;;
52724;SDS011;38621;52.830;6.914;2023-12-07T02:45:16;10.32;;;8.45;;
52724;SDS011;38621;52.830;6.914;2023-12-07T02:47:42;12.25;;;9.02;;
52724;SDS011;38621;52.830;6.914;2023-12-07T02:50:10;11.60;;;8.95;;
52724;SDS011;38621;52.830;6.914;2023-12-07T02:52:37;11.15;;;9.02;;
52724;SDS011;38621;52.830;6.914;2023-12-07T02:55:03;11.57;;;8.90;;
52724;SDS011;38621;52.830;6.914;2023-12-07T02:57:29;11.57;;;9.32;;
52724;SDS011;38621;52.830;6.914;2023-12-07T02:59:55;9.45;;;8.38;;
52724;SDS011;38621;52.830;6.914;2023-12-07T03:02:21;14.48;;;9.75;;
52724;SDS011;38621;52.830;6.914;2023-12-07T03:04:47;12.80;;;9.80;;
52724;SDS011;38621;52.830;6.914;2023-12-07T03:07:13;11.10;;;9.10;;
52724;SDS011;38621;52.830;6.914;2023-12-07T03:09:39;10.88;;;9.20;;
52724;SDS011;38621;52.830;6.914;2023-12-07T03:12:05;10.63;;;9.05;;
52724;SDS011;38621;52.830;6.914;2023-12-07T03:14:31;11.75;;;9.65;;
52724;SDS011;38621;52.830;6.914;2023-12-07T03:16:57;13.45;;;9.68;;
52724;SDS011;38621;52.830;6.914;2023-12-07T03:19:23;11.35;;;9.60;;
52724;SDS011;38621;52.830;6.914;2023-12-07T03:21:49;13.55;;;9.65;;
52724;SDS011;38621;52.830;6.914;2023-12-07T03:24:14;13.95;;;10.43;;
52724;SDS011;38621;52.830;6.914;2023-12-07T03:26:40;12.32;;;9.30;;
52724;SDS011;38621;52.830;6.914;2023-12-07T03:29:06;10.23;;;9.15;;
52724;SDS011;38621;52.830;6.914;2023-12-07T03:31:32;11.35;;;9.48;;
52724;SDS011;38621;52.830;6.914;2023-12-07T03:33:58;13.32;;;9.65;;
52724;SDS011;38621;52.830;6.914;2023-12-07T03:36:26;11.05;;;8.70;;
52724;SDS011;38621;52.830;6.914;2023-12-07T03:38:52;11.57;;;9.52;;
52724;SDS011;38621;52.830;6.914;2023-12-07T03:41:18;11.23;;;9.00;;
52724;SDS011;38621;52.830;6.914;2023-12-07T03:43:44;12.48;;;9.00;;
52724;SDS011;38621;52.830;6.914;2023-12-07T03:46:09;11.50;;;8.43;;
52724;SDS011;38621;52.830;6.914;2023-12-07T03:48:35;12.77;;;9.30;;
52724;SDS011;38621;52.830;6.914;2023-12-07T03:51:01;13.80;;;9.90;;
52724;SDS011;38621;52.830;6.914;2023-12-07T03:53:27;13.73;;;9.35;;
52724;SDS011;38621;52.830;6.914;2023-12-07T03:55:53;11.73;;;10.35;;
52724;SDS011;38621;52.830;6.914;2023-12-07T03:58:20;13.77;;;10.25;;
52724;SDS011;38621;52.830;6.914;2023-12-07T04:00:46;13.25;;;10.65;;
52724;SDS011;38621;52.830;6.914;2023-12-07T04:03:11;14.95;;;10.73;;
52724;SDS011;38621;52.830;6.914;2023-12-07T04:05:37;15.32;;;12.00;;
52724;SDS011;38621;52.830;6.914;2023-12-07T04:08:03;16.67;;;11.32;;
52724;SDS011;38621;52.830;6.914;2023-12-07T04:10:32;14.77;;;12.35;;
52724;SDS011;38621;52.830;6.914;2023-12-07T04:12:58;17.98;;;12.02;;
52724;SDS011;38621;52.830;6.914;2023-12-07T04:15:23;13.43;;;11.43;;
52724;SDS011;38621;52.830;6.914;2023-12-07T04:17:50;13.82;;;10.93;;
52724;SDS011;38621;52.830;6.914;2023-12-07T04:20:17;19.67;;;12.57;;
52724;SDS011;38621;52.830;6.914;2023-12-07T04:22:43;12.43;;;10.13;;
52724;SDS011;38621;52.830;6.914;2023-12-07T04:25:10;12.63;;;10.75;;
52724;SDS011;38621;52.830;6.914;2023-12-07T04:27:36;15.38;;;11.25;;
52724;SDS011;38621;52.830;6.914;2023-12-07T04:30:02;14.75;;;10.85;;
52724;SDS011;38621;52.830;6.914;2023-12-07T04:32:28;15.80;;;10.93;;
52724;SDS011;38621;52.830;6.914;2023-12-07T04:34:54;13.60;;;10.65;;
52724;SDS011;38621;52.830;6.914;2023-12-07T04:37:20;12.43;;;10.43;;
52724;SDS011;38621;52.830;6.914;2023-12-07T04:39:46;13.50;;;11.63;;
52724;SDS011;38621;52.830;6.914;2023-12-07T04:42:12;15.68;;;11.50;;
52724;SDS011;38621;52.830;6.914;2023-12-07T04:44:37;14.20;;;11.15;;
52724;SDS011;38621;52.830;6.914;2023-12-07T04:47:03;19.33;;;11.68;;
52724;SDS011;38621;52.830;6.914;2023-12-07T04:49:29;13.35;;;10.90;;
52724;SDS011;38621;52.830;6.914;2023-12-07T04:51:55;14.27;;;11.25;;
52724;SDS011;38621;52.830;6.914;2023-12-07T04:54:21;12.93;;;10.00;;
52724;SDS011;38621;52.830;6.914;2023-12-07T04:56:46;14.52;;;11.25;;
52724;SDS011;38621;52.830;6.914;2023-12-07T04:59:12;13.00;;;10.43;;
52724;SDS011;38621;52.830;6.914;2023-12-07T05:01:38;16.55;;;11.80;;
52724;SDS011;38621;52.830;6.914;2023-12-07T05:04:04;15.43;;;11.55;;
52724;SDS011;38621;52.830;6.914;2023-12-07T05:06:30;15.95;;;11.18;;
52724;SDS011;38621;52.830;6.914;2023-12-07T05:08:56;15.93;;;12.18;;
52724;SDS011;38621;52.830;6.914;2023-12-07T05:11:22;17.85;;;11.57;;
52724;SDS011;38621;52.830;6.914;2023-12-07T05:13:48;15.32;;;11.52;;
52724;SDS011;38621;52.830;6.914;2023-12-07T05:16:14;19.08;;;12.30;;
52724;SDS011;38621;52.830;6.914;2023-12-07T05:18:40;18.33;;;12.07;;
52724;SDS011;38621;52.830;6.914;2023-12-07T05:21:06;17.00;;;12.18;;
52724;SDS011;38621;52.830;6.914;2023-12-07T05:23:32;16.08;;;12.57;;
52724;SDS011;38621;52.830;6.914;2023-12-07T05:25:58;17.27;;;12.75;;
52724;SDS011;38621;52.830;6.914;2023-12-07T05:28:25;17.85;;;12.48;;
52724;SDS011;38621;52.830;6.914;2023-12-07T05:30:51;17.15;;;11.80;;
52724;SDS011;38621;52.830;6.914;2023-12-07T05:33:17;18.10;;;11.85;;
52724;SDS011;38621;52.830;6.914;2023-12-07T05:35:44;16.70;;;11.70;;
52724;SDS011;38621;52.830;6.914;2023-12-07T05:38:10;17.00;;;11.88;;
52724;SDS011;38621;52.830;6.914;2023-12-07T05:40:36;17.50;;;12.65;;
52724;SDS011;38621;52.830;6.914;2023-12-07T05:43:02;15.02;;;12.98;;
52724;SDS011;38621;52.830;6.914;2023-12-07T05:45:29;17.50;;;12.52;;
52724;SDS011;38621;52.830;6.914;2023-12-07T05:47:55;16.42;;;12.13;;
52724;SDS011;38621;52.830;6.914;2023-12-07T05:50:21;15.98;;;12.00;;
52724;SDS011;38621;52.830;6.914;2023-12-07T05:52:47;18.42;;;13.27;;
52724;SDS011;38621;52.830;6.914;2023-12-07T05:55:12;17.05;;;12.00;;
52724;SDS011;38621;52.830;6.914;2023-12-07T05:57:38;15.70;;;12.80;;
52724;SDS011;38621;52.830;6.914;2023-12-07T06:00:05;15.82;;;12.05;;
52724;SDS011;38621;52.830;6.914;2023-12-07T06:02:34;16.33;;;13.60;;
52724;SDS011;38621;52.830;6.914;2023-12-07T06:05:01;21.73;;;13.80;;
52724;SDS011;38621;52.830;6.914;2023-12-07T06:07:30;15.88;;;13.13;;
52724;SDS011;38621;52.830;6.914;2023-12-07T06:09:56;16.83;;;13.25;;
52724;SDS011;38621;52.830;6.914;2023-12-07T06:12:21;18.70;;;12.75;;
52724;SDS011;38621;52.830;6.914;2023-12-07T06:14:47;18.73;;;13.00;;
52724;SDS011;38621;52.830;6.914;2023-12-07T06:17:13;17.80;;;13.25;;
52724;SDS011;38621;52.830;6.914;2023-12-07T06:19:39;17.77;;;13.77;;
52724;SDS011;38621;52.830;6.914;2023-12-07T06:22:05;18.77;;;12.70;;
52724;SDS011;38621;52.830;6.914;2023-12-07T06:24:31;16.70;;;12.48;;
52724;SDS011;38621;52.830;6.914;2023-12-07T06:26:57;18.05;;;13.65;;
52724;SDS011;38621;52.830;6.914;2023-12-07T06:29:24;17.45;;;12.88;;
52724;SDS011;38621;52.830;6.914;2023-12-07T06:31:50;20.92;;;14.05;;
52724;SDS011;38621;52.830;6.914;2023-12-07T06:34:15;15.95;;;12.23;;
52724;SDS011;38621;52.830;6.914;2023-12-07T06:36:41;18.65;;;12.25;;
52724;SDS011;38621;52.830;6.914;2023-12-07T06:39:09;15.63;;;12.85;;
52724;SDS011;38621;52.830;6.914;2023-12-07T06:41:35;19.30;;;12.77;;
52724;SDS011;38621;52.830;6.914;2023-12-07T06:44:01;19.00;;;13.18;;
52724;SDS011;38621;52.830;6.914;2023-12-07T06:46:26;18.92;;;14.88;;
52724;SDS011;38621;52.830;6.914;2023-12-07T06:48:52;17.08;;;13.38;;
52724;SDS011;38621;52.830;6.914;2023-12-07T06:51:18;19.40;;;14.25;;
52724;SDS011;38621;52.830;6.914;2023-12-07T06:53:43;15.70;;;13.43;;
52724;SDS011;38621;52.830;6.914;2023-12-07T06:56:09;15.82;;;13.05;;
52724;SDS011;38621;52.830;6.914;2023-12-07T06:58:35;18.65;;;13.63;;
52724;SDS011;38621;52.830;6.914;2023-12-07T07:01:00;18.60;;;13.75;;
52724;SDS011;38621;52.830;6.914;2023-12-07T07:03:26;18.30;;;13.70;;
52724;SDS011;38621;52.830;6.914;2023-12-07T07:05:53;18.48;;;13.45;;
52724;SDS011;38621;52.830;6.914;2023-12-07T07:08:19;17.27;;;12.90;;
52724;SDS011;38621;52.830;6.914;2023-12-07T07:10:45;15.68;;;12.98;;
52724;SDS011;38621;52.830;6.914;2023-12-07T07:13:14;19.33;;;14.20;;
52724;SDS011;38621;52.830;6.914;2023-12-07T07:15:44;17.20;;;12.95;;
52724;SDS011;38621;52.830;6.914;2023-12-07T07:18:10;18.13;;;13.75;;
52724;SDS011;38621;52.830;6.914;2023-12-07T07:20:36;22.30;;;13.98;;
52724;SDS011;38621;52.830;6.914;2023-12-07T07:23:02;18.13;;;14.30;;
52724;SDS011;38621;52.830;6.914;2023-12-07T07:25:27;19.55;;;13.52;;
52724;SDS011;38621;52.830;6.914;2023-12-07T07:27:53;18.77;;;13.18;;
52724;SDS011;38621;52.830;6.914;2023-12-07T07:30:20;18.40;;;13.43;;
52724;SDS011;38621;52.830;6.914;2023-12-07T07:32:46;15.80;;;13.00;;
52724;SDS011;38621;52.830;6.914;2023-12-07T07:35:12;18.13;;;12.93;;
52724;SDS011;38621;52.830;6.914;2023-12-07T07:37:39;20.08;;;14.10;;
52724;SDS011;38621;52.830;6.914;2023-12-07T07:40:04;20.30;;;14.60;;
52724;SDS011;38621;52.830;6.914;2023-12-07T07:42:34;15.15;;;12.35;;
52724;SDS011;38621;52.830;6.914;2023-12-07T07:45:00;18.83;;;13.43;;
52724;SDS011;38621;52.830;6.914;2023-12-07T07:47:26;19.00;;;12.52;;
52724;SDS011;38621;52.830;6.914;2023-12-07T07:49:52;20.75;;;13.43;;
52724;SDS011;38621;52.830;6.914;2023-12-07T07:52:17;18.98;;;13.15;;
52724;SDS011;38621;52.830;6.914;2023-12-07T07:54:44;16.27;;;13.20;;
52724;SDS011;38621;52.830;6.914;2023-12-07T07:57:10;19.20;;;13.85;;
52724;SDS011;38621;52.830;6.914;2023-12-07T07:59:35;18.38;;;13.82;;
52724;SDS011;38621;52.830;6.914;2023-12-07T08:02:01;17.85;;;13.35;;
52724;SDS011;38621;52.830;6.914;2023-12-07T08:04:27;19.17;;;13.68;;
52724;SDS011;38621;52.830;6.914;2023-12-07T08:06:53;16.83;;;13.23;;
52724;SDS011;38621;52.830;6.914;2023-12-07T08:09:19;20.27;;;14.13;;
52724;SDS011;38621;52.830;6.914;2023-12-07T08:11:44;20.17;;;14.77;;
52724;SDS011;38621;52.830;6.914;2023-12-07T08:14:10;22.10;;;14.98;;
52724;SDS011;38621;52.830;6.914;2023-12-07T08:16:36;20.20;;;15.20;;
52724;SDS011;38621;52.830;6.914;2023-12-07T08:19:01;22.67;;;14.93;;
52724;SDS011;38621;52.830;6.914;2023-12-07T08:21:27;17.65;;;14.65;;
52724;SDS011;38621;52.830;6.914;2023-12-07T08:23:54;20.92;;;15.27;;
52724;SDS011;38621;52.830;6.914;2023-12-07T08:26:20;19.67;;;15.48;;
52724;SDS011;38621;52.830;6.914;2023-12-07T08:28:46;21.95;;;14.90;;
52724;SDS011;38621;52.830;6.914;2023-12-07T08:31:12;18.02;;;14.52;;
52724;SDS011;38621;52.830;6.914;2023-12-07T08:33:38;21.00;;;15.82;;
52724;SDS011;38621;52.830;6.914;2023-12-07T08:36:05;20.75;;;15.55;;
52724;SDS011;38621;52.830;6.914;2023-12-07T08:38:31;25.20;;;15.88;;
52724;SDS011;38621;52.830;6.914;2023-12-07T08:40:57;21.10;;;15.13;;
52724;SDS011;38621;52.830;6.914;2023-12-07T08:43:23;22.27;;;15.25;;
52724;SDS011;38621;52.830;6.914;2023-12-07T08:45:52;20.73;;;15.13;;
52724;SDS011;38621;52.830;6.914;2023-12-07T08:48:18;19.35;;;14.25;;
52724;SDS011;38621;52.830;6.914;2023-12-07T08:50:44;23.08;;;14.88;;
52724;SDS011;38621;52.830;6.914;2023-12-07T08:53:10;22.80;;;15.55;;
52724;SDS011;38621;52.830;6.914;2023-12-07T08:55:36;25.42;;;15.93;;
52724;SDS011;38621;52.830;6.914;2023-12-07T08:58:01;24.77;;;16.90;;
52724;SDS011;38621;52.830;6.914;2023-12-07T09:00:30;22.00;;;15.90;;
52724;SDS011;38621;52.830;6.914;2023-12-07T09:02:57;22.48;;;16.75;;
52724;SDS011;38621;52.830;6.914;2023-12-07T09:05:23;22.00;;;16.55;;
52724;SDS011;38621;52.830;6.914;2023-12-07T09:07:48;24.50;;;16.17;;
52724;SDS011;38621;52.830;6.914;2023-12-07T09:10:14;21.20;;;16.05;;
52724;SDS011;38621;52.830;6.914;2023-12-07T09:12:40;20.40;;;14.68;;
52724;SDS011;38621;52.830;6.914;2023-12-07T09:15:06;22.67;;;15.80;;
52724;SDS011;38621;52.830;6.914;2023-12-07T09:17:32;21.10;;;15.65;;
52724;SDS011;38621;52.830;6.914;2023-12-07T09:19:58;23.08;;;15.85;;
52724;SDS011;38621;52.830;6.914;2023-12-07T09:22:25;22.95;;;15.95;;
52724;SDS011;38621;52.830;6.914;2023-12-07T09:24:50;23.17;;;16.02;;
52724;SDS011;38621;52.830;6.914;2023-12-07T09:27:16;24.77;;;15.63;;
52724;SDS011;38621;52.830;6.914;2023-12-07T09:29:42;20.55;;;14.43;;
52724;SDS011;38621;52.830;6.914;2023-12-07T09:32:07;19.55;;;15.00;;
52724;SDS011;38621;52.830;6.914;2023-12-07T09:34:33;20.58;;;15.20;;
52724;SDS011;38621;52.830;6.914;2023-12-07T09:37:08;22.60;;;15.45;;
52724;SDS011;38621;52.830;6.914;2023-12-07T09:39:35;21.23;;;14.83;;
52724;SDS011;38621;52.830;6.914;2023-12-07T09:42:03;22.77;;;16.08;;
52724;SDS011;38621;52.830;6.914;2023-12-07T09:44:29;19.83;;;14.63;;
52724;SDS011;38621;52.830;6.914;2023-12-07T09:46:55;20.20;;;14.35;;
52724;SDS011;38621;52.830;6.914;2023-12-07T09:49:21;22.02;;;12.90;;
52724;SDS011;38621;52.830;6.914;2023-12-07T09:51:47;21.75;;;15.20;;
52724;SDS011;38621;52.830;6.914;2023-12-07T09:54:14;25.60;;;15.68;;
52724;SDS011;38621;52.830;6.914;2023-12-07T09:56:40;26.92;;;15.23;;
52724;SDS011;38621;52.830;6.914;2023-12-07T09:59:06;29.75;;;15.48;;
52724;SDS011;38621;52.830;6.914;2023-12-07T10:01:32;36.97;;;16.40;;
52724;SDS011;38621;52.830;6.914;2023-12-07T10:04:17;24.67;;;16.48;;
52724;SDS011;38621;52.830;6.914;2023-12-07T10:06:49;24.17;;;14.75;;
52724;SDS011;38621;52.830;6.914;2023-12-07T10:09:15;46.67;;;16.33;;
52724;SDS011;38621;52.830;6.914;2023-12-07T10:11:44;49.33;;;17.75;;
52724;SDS011;38621;52.830;6.914;2023-12-07T10:14:10;41.30;;;16.60;;
52724;SDS011;38621;52.830;6.914;2023-12-07T10:16:36;51.83;;;20.40;;
52724;SDS011;38621;52.830;6.914;2023-12-07T10:19:15;62.95;;;20.85;;
52724;SDS011;38621;52.830;6.914;2023-12-07T10:21:44;85.20;;;19.50;;
52724;SDS011;38621;52.830;6.914;2023-12-07T10:24:11;64.60;;;18.80;;
52724;SDS011;38621;52.830;6.914;2023-12-07T10:26:37;49.33;;;18.60;;
52724;SDS011;38621;52.830;6.914;2023-12-07T10:29:07;25.45;;;16.55;;
52724;SDS011;38621;52.830;6.914;2023-12-07T10:31:33;37.17;;;17.08;;
52724;SDS011;38621;52.830;6.914;2023-12-07T10:33:59;31.67;;;16.38;;
52724;SDS011;38621;52.830;6.914;2023-12-07T10:36:26;35.17;;;16.23;;
52724;SDS011;38621;52.830;6.914;2023-12-07T10:38:52;26.27;;;16.65;;
52724;SDS011;38621;52.830;6.914;2023-12-07T10:41:19;25.88;;;14.38;;
52724;SDS011;38621;52.830;6.914;2023-12-07T10:43:48;46.28;;;15.90;;
52724;SDS011;38621;52.830;6.914;2023-12-07T10:46:16;27.15;;;15.23;;
52724;SDS011;38621;52.830;6.914;2023-12-07T10:48:46;30.70;;;13.00;;
52724;SDS011;38621;52.830;6.914;2023-12-07T10:51:14;28.80;;;13.95;;
52724;SDS011;38621;52.830;6.914;2023-12-07T10:53:56;40.30;;;15.40;;
52724;SDS011;38621;52.830;6.914;2023-12-07T10:56:28;20.08;;;14.18;;
52724;SDS011;38621;52.830;6.914;2023-12-07T10:58:58;26.42;;;14.57;;
52724;SDS011;38621;52.830;6.914;2023-12-07T11:01:24;25.48;;;15.52;;
52724;SDS011;38621;52.830;6.914;2023-12-07T11:03:51;20.23;;;14.65;;
52724;SDS011;38621;52.830;6.914;2023-12-07T11:06:18;26.70;;;13.57;;
52724;SDS011;38621;52.830;6.914;2023-12-07T11:08:46;24.83;;;14.13;;
52724;SDS011;38621;52.830;6.914;2023-12-07T11:11:20;17.98;;;13.52;;
52724;SDS011;38621;52.830;6.914;2023-12-07T11:13:58;29.42;;;14.00;;
52724;SDS011;38621;52.830;6.914;2023-12-07T11:16:32;20.13;;;13.32;;
52724;SDS011;38621;52.830;6.914;2023-12-07T11:19:00;26.02;;;14.00;;
52724;SDS011;38621;52.830;6.914;2023-12-07T11:21:26;24.60;;;14.65;;
52724;SDS011;38621;52.830;6.914;2023-12-07T11:23:53;29.00;;;14.70;;
52724;SDS011;38621;52.830;6.914;2023-12-07T11:26:22;21.55;;;14.55;;
52724;SDS011;38621;52.830;6.914;2023-12-07T11:28:49;27.75;;;15.00;;
52724;SDS011;38621;52.830;6.914;2023-12-07T11:31:15;59.67;;;17.17;;
52724;SDS011;38621;52.830;6.914;2023-12-07T11:33:41;33.45;;;16.10;;
52724;SDS011;38621;52.830;6.914;2023-12-07T11:36:11;40.10;;;15.82;;
52724;SDS011;38621;52.830;6.914;2023-12-07T11:38:37;31.92;;;16.20;;
52724;SDS011;38621;52.830;6.914;2023-12-07T11:41:04;42.90;;;16.80;;
52724;SDS011;38621;52.830;6.914;2023-12-07T11:46:00;40.05;;;15.75;;
52724;SDS011;38621;52.830;6.914;2023-12-07T11:48:26;28.45;;;16.08;;
52724;SDS011;38621;52.830;6.914;2023-12-07T11:53:23;37.65;;;16.55;;
52724;SDS011;38621;52.830;6.914;2023-12-07T11:55:50;52.15;;;17.25;;
52724;SDS011;38621;52.830;6.914;2023-12-07T11:58:16;34.90;;;17.15;;
52724;SDS011;38621;52.830;6.914;2023-12-07T12:00:43;36.40;;;18.23;;
52724;SDS011;38621;52.830;6.914;2023-12-07T12:03:11;37.03;;;17.48;;
52724;SDS011;38621;52.830;6.914;2023-12-07T12:05:38;42.58;;;18.65;;
52724;SDS011;38621;52.830;6.914;2023-12-07T12:08:05;45.47;;;18.15;;
52724;SDS011;38621;52.830;6.914;2023-12-07T12:10:31;33.85;;;17.45;;
52724;SDS011;38621;52.830;6.914;2023-12-07T12:13:00;27.52;;;16.42;;
52724;SDS011;38621;52.830;6.914;2023-12-07T12:15:28;45.95;;;19.90;;
52724;SDS011;38621;52.830;6.914;2023-12-07T12:17:57;42.45;;;18.27;;
52724;SDS011;38621;52.830;6.914;2023-12-07T12:20:27;29.08;;;17.67;;
52724;SDS011;38621;52.830;6.914;2023-12-07T12:22:54;38.78;;;20.17;;
52724;SDS011;38621;52.830;6.914;2023-12-07T12:25:23;37.42;;;19.65;;
52724;SDS011;38621;52.830;6.914;2023-12-07T12:28:02;37.63;;;19.23;;
52724;SDS011;38621;52.830;6.914;2023-12-07T12:30:29;32.05;;;19.30;;
52724;SDS011;38621;52.830;6.914;2023-12-07T12:32:57;44.90;;;19.55;;
52724;SDS011;38621;52.830;6.914;2023-12-07T12:35:23;45.05;;;20.65;;
52724;SDS011;38621;52.830;6.914;2023-12-07T12:37:50;34.30;;;19.42;;
52724;SDS011;38621;52.830;6.914;2023-12-07T12:40:16;34.08;;;19.95;;
52724;SDS011;38621;52.830;6.914;2023-12-07T12:42:47;37.20;;;19.15;;
52724;SDS011;38621;52.830;6.914;2023-12-07T12:45:15;38.00;;;19.13;;
52724;SDS011;38621;52.830;6.914;2023-12-07T12:47:43;38.28;;;20.42;;
52724;SDS011;38621;52.830;6.914;2023-12-07T12:50:10;42.22;;;21.13;;
52724;SDS011;38621;52.830;6.914;2023-12-07T12:52:39;40.22;;;22.33;;
52724;SDS011;38621;52.830;6.914;2023-12-07T12:55:09;36.22;;;20.17;;
52724;SDS011;38621;52.830;6.914;2023-12-07T12:57:35;52.38;;;21.10;;
52724;SDS011;38621;52.830;6.914;2023-12-07T13:00:02;46.88;;;20.75;;
52724;SDS011;38621;52.830;6.914;2023-12-07T13:02:28;62.45;;;22.48;;
52724;SDS011;38621;52.830;6.914;2023-12-07T13:04:54;49.03;;;22.15;;
52724;SDS011;38621;52.830;6.914;2023-12-07T13:07:21;37.95;;;19.60;;
52724;SDS011;38621;52.830;6.914;2023-12-07T13:09:49;48.60;;;21.70;;
52724;SDS011;38621;52.830;6.914;2023-12-07T13:12:15;49.53;;;22.23;;
52724;SDS011;38621;52.830;6.914;2023-12-07T13:14:41;53.13;;;22.00;;
52724;SDS011;38621;52.830;6.914;2023-12-07T13:17:07;51.05;;;22.90;;
52724;SDS011;38621;52.830;6.914;2023-12-07T13:19:33;49.03;;;21.25;;
52724;SDS011;38621;52.830;6.914;2023-12-07T13:21:59;49.63;;;22.88;;
52724;SDS011;38621;52.830;6.914;2023-12-07T13:24:26;53.10;;;22.58;;
52724;SDS011;38621;52.830;6.914;2023-12-07T13:26:51;49.13;;;23.08;;
52724;SDS011;38621;52.830;6.914;2023-12-07T13:29:17;57.20;;;24.08;;
52724;SDS011;38621;52.830;6.914;2023-12-07T13:31:43;47.40;;;23.23;;
52724;SDS011;38621;52.830;6.914;2023-12-07T13:34:08;44.85;;;22.95;;
52724;SDS011;38621;52.830;6.914;2023-12-07T13:36:34;49.40;;;22.70;;
52724;SDS011;38621;52.830;6.914;2023-12-07T13:39:01;51.10;;;24.95;;
52724;SDS011;38621;52.830;6.914;2023-12-07T13:41:29;52.67;;;23.90;;
52724;SDS011;38621;52.830;6.914;2023-12-07T13:43:55;42.03;;;22.85;;
52724;SDS011;38621;52.830;6.914;2023-12-07T13:46:21;47.85;;;23.30;;
52724;SDS011;38621;52.830;6.914;2023-12-07T13:48:48;52.97;;;23.80;;
52724;SDS011;38621;52.830;6.914;2023-12-07T13:51:14;49.00;;;25.42;;
52724;SDS011;38621;52.830;6.914;2023-12-07T13:53:40;55.13;;;25.90;;
52724;SDS011;38621;52.830;6.914;2023-12-07T13:56:06;44.53;;;23.45;;
52724;SDS011;38621;52.830;6.914;2023-12-07T13:58:33;45.70;;;23.73;;
52724;SDS011;38621;52.830;6.914;2023-12-07T14:01:00;55.35;;;25.92;;
52724;SDS011;38621;52.830;6.914;2023-12-07T14:03:26;47.03;;;23.63;;
52724;SDS011;38621;52.830;6.914;2023-12-07T14:05:52;56.15;;;24.70;;
52724;SDS011;38621;52.830;6.914;2023-12-07T14:08:18;44.13;;;23.55;;
52724;SDS011;38621;52.830;6.914;2023-12-07T14:10:44;43.72;;;22.55;;
52724;SDS011;38621;52.830;6.914;2023-12-07T14:13:11;40.85;;;24.65;;
52724;SDS011;38621;52.830;6.914;2023-12-07T14:15:37;45.55;;;23.15;;
52724;SDS011;38621;52.830;6.914;2023-12-07T14:18:03;45.45;;;23.98;;
52724;SDS011;38621;52.830;6.914;2023-12-07T14:20:29;47.35;;;25.83;;
52724;SDS011;38621;52.830;6.914;2023-12-07T14:22:56;54.17;;;26.23;;
52724;SDS011;38621;52.830;6.914;2023-12-07T14:25:22;52.58;;;24.88;;
52724;SDS011;38621;52.830;6.914;2023-12-07T14:27:48;48.42;;;23.70;;
52724;SDS011;38621;52.830;6.914;2023-12-07T14:30:14;46.83;;;22.98;;